Time;durP1;ratioP1;P1;durP2;ratioP2;P2;SDS_P1;SDS_P2;PMS_P1;PMS_P2;Temp;Humidity;BMP_temperature;BMP_pressure;BME280_temperature;BME280_humidity;BME280_pressure;Samples;Min_cycle;Max_cycle;Signal;HPM_P1;HPM_P2
2023/09/12 00:01:59;;;;;;;;;;;;;;;28.70;47.84;101356.63;5056489;28;19946;-68
2023/09/12 00:04:25;;;;;;;;;;;;;;;28.70;48.10;101363.84;5057516;28;20622;-69
2023/09/12 00:06:50;;;;;;;;;;;;;;;28.70;47.95;101371.88;5061722;28;19955;-68
2023/09/12 00:09:15;;;;;;;;;;;;;;;28.70;47.80;101372.69;5056421;28;20079;-68
2023/09/12 00:11:41;;;;;;;;;;;;;;;28.70;47.84;101361.97;5065235;28;19963;-68
2023/09/12 00:14:08;;;;;;;;;;;;;;;28.68;47.91;101334.59;5060797;28;19948;-68
2023/09/12 00:16:33;;;;;;;;;;;;;;;28.68;48.02;101315.00;5058906;28;20857;-68
2023/09/12 00:18:59;;;;;;;;;;;;;;;28.68;47.81;101326.53;5054173;28;20021;-68
2023/09/12 00:21:24;;;;;;;;;;;;;;;28.66;48.07;101320.59;5051980;28;19942;-68
2023/09/12 00:23:49;;;;;;;;;;;;;;;28.67;47.79;101319.56;5058027;28;19955;-68
2023/09/12 00:26:15;;;;;;;;;;;;;;;28.70;48.00;101311.06;5067347;28;20057;-68
2023/09/12 00:28:41;;;;;;;;;;;;;;;28.66;48.00;101301.84;5062182;28;19949;-68
2023/09/12 00:31:06;;;;;;;;;;;;;;;28.67;47.99;101298.13;5098459;27;20280;-68
2023/09/12 00:33:32;;;;;;;;;;;;;;;28.65;48.01;101281.44;5056134;28;19949;-68
2023/09/12 00:35:58;;;;;;;;;;;;;;;28.65;47.85;101269.91;5058395;28;19951;-68
2023/09/12 00:38:23;;;;;;;;;;;;;;;28.65;47.88;101261.88;5062664;28;20747;-68
2023/09/12 00:40:48;;;;;;;;;;;;;;;28.66;47.92;101263.50;5066142;28;20036;-68
2023/09/12 00:43:14;;;;;;;;;;;;;;;28.66;47.76;101272.38;5064709;28;19958;-68
2023/09/12 00:45:39;;;;;;;;;;;;;;;28.66;48.01;101271.56;5062776;28;19944;-68
2023/09/12 00:48:06;;;;;;;;;;;;;;;28.63;48.05;101272.81;5061174;28;19942;-68
2023/09/12 00:50:32;;;;;;;;;;;;;;;28.62;48.00;101273.06;5064737;28;19956;-69
2023/09/12 00:52:58;;;;;;;;;;;;;;;28.63;47.91;101283.53;5065830;28;19943;-68
2023/09/12 00:55:24;;;;;;;;;;;;;;;28.62;48.04;101289.94;5068699;28;19940;-68
2023/09/12 00:57:51;;;;;;;;;;;;;;;28.62;48.00;101294.50;5059636;28;20011;-68
2023/09/12 01:00:17;;;;;;;;;;;;;;;28.61;48.03;101301.72;5061727;28;19945;-68
2023/09/12 01:02:43;;;;;;;;;;;;;;;28.62;47.89;101302.53;5058136;28;19956;-68
2023/09/12 01:05:09;;;;;;;;;;;;;;;28.64;47.87;101292.41;5078240;28;19989;-68
2023/09/12 01:07:39;;;;;;;;;;;;;;;28.64;47.90;101293.22;5065836;28;19942;-68
2023/09/12 01:10:05;;;;;;;;;;;;;;;28.65;47.93;101302.06;5066736;28;20384;-67
2023/09/12 01:12:30;;;;;;;;;;;;;;;28.61;47.89;101299.03;5060601;28;19962;-68
2023/09/12 01:14:56;;;;;;;;;;;;;;;28.62;48.14;101305.22;5059829;28;19948;-68
2023/09/12 01:17:22;;;;;;;;;;;;;;;28.62;47.99;101310.56;5058105;28;20790;-68
2023/09/12 01:19:48;;;;;;;;;;;;;;;28.59;47.95;101301.94;5060510;28;19939;-68
2023/09/12 01:22:32;;;;;;;;;;;;;;;28.61;47.93;101303.56;5059622;28;19957;-68
2023/09/12 01:25:07;;;;;;;;;;;;;;;28.58;47.96;101308.34;5066169;28;19945;-69
2023/09/12 01:27:42;;;;;;;;;;;;;;;28.58;48.04;101307.53;5063575;28;19920;-68
2023/09/12 01:30:09;;;;;;;;;;;;;;;28.59;48.01;101309.16;5061347;28;19954;-68
2023/09/12 01:32:35;;;;;;;;;;;;;;;28.56;47.86;101305.09;5061782;28;19936;-68
2023/09/12 01:35:03;;;;;;;;;;;;;;;28.57;48.09;101304.03;5055171;28;20035;-68
2023/09/12 01:37:32;;;;;;;;;;;;;;;28.58;47.95;101288.78;5059401;28;20046;-68
2023/09/12 01:39:57;;;;;;;;;;;;;;;28.55;47.87;101290.06;5075101;28;20004;-68
2023/09/12 01:42:23;;;;;;;;;;;;;;;28.56;47.82;101290.88;5065835;28;20394;-68
2023/09/12 01:44:50;;;;;;;;;;;;;;;28.56;47.78;101296.22;5063169;28;19980;-68
2023/09/12 01:47:17;;;;;;;;;;;;;;;28.55;47.89;101295.41;5060077;28;19962;-68
2023/09/12 01:49:44;;;;;;;;;;;;;;;28.56;48.07;101297.03;5063858;28;20677;-68
2023/09/12 01:52:10;;;;;;;;;;;;;;;28.56;47.89;101296.22;5059900;28;19951;-68
2023/09/12 01:54:36;;;;;;;;;;;;;;;28.53;48.09;101296.66;5060572;28;20063;-68
2023/09/12 01:57:02;;;;;;;;;;;;;;;28.54;47.91;101307.16;5053023;28;19945;-68
2023/09/12 01:59:28;;;;;;;;;;;;;;;28.54;47.92;101309.81;5059767;28;20002;-68
2023/09/12 02:01:53;;;;;;;;;;;;;;;28.53;47.96;101302.00;5068197;28;19985;-68
2023/09/12 02:04:19;;;;;;;;;;;;;;;28.53;48.02;101307.38;5056660;28;20290;-68
2023/09/12 02:06:44;;;;;;;;;;;;;;;28.51;47.89;101307.59;5076747;28;19956;-68
2023/09/12 02:09:11;;;;;;;;;;;;;;;28.51;48.08;101301.44;5062102;28;20546;-68
2023/09/12 02:11:37;;;;;;;;;;;;;;;28.52;48.00;101306.56;5058505;28;20441;-68
2023/09/12 02:14:02;;;;;;;;;;;;;;;28.51;47.94;101310.28;5062261;28;20045;-68
2023/09/12 02:16:29;;;;;;;;;;;;;;;28.53;47.66;101310.06;5062469;28;19990;-68
2023/09/12 02:18:54;;;;;;;;;;;;;;;28.52;47.86;101305.75;5063367;28;19939;-68
2023/09/12 02:21:19;;;;;;;;;;;;;;;28.53;47.78;101300.16;5058557;28;19989;-68
2023/09/12 02:23:45;;;;;;;;;;;;;;;28.51;47.84;101299.56;5061976;28;19952;-68
2023/09/12 02:26:11;;;;;;;;;;;;;;;28.48;48.05;101302.69;5060139;28;19946;-69
2023/09/12 02:28:36;;;;;;;;;;;;;;;28.49;47.93;101311.56;5056235;28;20031;-68
2023/09/12 02:31:02;;;;;;;;;;;;;;;28.48;47.67;101324.13;5061612;28;19967;-68
2023/09/12 02:33:27;;;;;;;;;;;;;;;28.48;48.09;101320.63;5041604;28;19950;-68
2023/09/12 02:35:53;;;;;;;;;;;;;;;28.48;47.75;101318.78;5058132;28;19998;-68
2023/09/12 02:38:18;;;;;;;;;;;;;;;28.47;47.97;101317.13;5055339;28;19952;-68
2023/09/12 02:40:44;;;;;;;;;;;;;;;28.48;47.87;101310.75;5090614;27;20038;-68
2023/09/12 02:43:09;;;;;;;;;;;;;;;28.50;47.88;101310.50;5055628;28;19947;-68
2023/09/12 02:45:35;;;;;;;;;;;;;;;28.47;47.97;101311.78;5059249;28;19956;-68
2023/09/12 02:48:01;;;;;;;;;;;;;;;28.47;47.74;101310.97;5058666;28;19969;-68
2023/09/12 02:50:26;;;;;;;;;;;;;;;28.45;47.95;101313.88;5057542;28;19964;-68
2023/09/12 02:52:51;;;;;;;;;;;;;;;28.46;47.83;101303.97;5055734;28;19955;-68
2023/09/12 02:55:17;;;;;;;;;;;;;;;28.45;47.91;101308.50;5063414;28;19954;-68
2023/09/12 02:57:42;;;;;;;;;;;;;;;28.45;47.85;101313.06;5056905;28;20016;-68
2023/09/12 03:00:09;;;;;;;;;;;;;;;28.43;47.80;101315.97;5089054;27;19966;-68
2023/09/12 03:02:34;;;;;;;;;;;;;;;28.43;47.62;101313.28;5061026;28;20609;-68
2023/09/12 03:05:01;;;;;;;;;;;;;;;28.44;47.94;101314.09;5061484;28;19981;-68
2023/09/12 03:07:27;;;;;;;;;;;;;;;28.44;47.84;101308.75;5057519;28;19939;-70
2023/09/12 03:09:52;;;;;;;;;;;;;;;28.43;47.72;101305.25;5060019;28;20001;-68
2023/09/12 03:12:18;;;;;;;;;;;;;;;28.44;47.80;101300.72;5065083;28;19962;-68
2023/09/12 03:14:43;;;;;;;;;;;;;;;28.42;47.82;101294.75;5058459;28;19969;-68
2023/09/12 03:17:08;;;;;;;;;;;;;;;28.40;47.80;101286.94;5061884;28;20058;-68
2023/09/12 03:19:34;;;;;;;;;;;;;;;28.42;47.77;101284.03;5056526;28;20021;-68
2023/09/12 03:21:59;;;;;;;;;;;;;;;28.42;47.75;101286.72;5075263;28;20047;-68
2023/09/12 03:24:25;;;;;;;;;;;;;;;28.39;47.82;101287.19;5057697;28;20011;-68
2023/09/12 03:26:51;;;;;;;;;;;;;;;28.40;47.89;101294.16;5061586;28;19943;-68
2023/09/12 03:29:16;;;;;;;;;;;;;;;28.40;47.72;101296.84;5060368;28;19952;-68
2023/09/12 03:31:41;;;;;;;;;;;;;;;28.40;47.83;101299.53;5062180;28;19940;-68
2023/09/12 03:34:07;;;;;;;;;;;;;;;28.39;47.90;101292.53;5078108;28;19948;-68
2023/09/12 03:36:32;;;;;;;;;;;;;;;28.38;47.94;101278.31;5058756;28;19978;-68
2023/09/12 03:38:58;;;;;;;;;;;;;;;28.39;47.81;101287.19;5057261;28;20042;-68
2023/09/12 03:41:25;;;;;;;;;;;;;;;28.39;47.68;101282.66;5061979;28;19949;-68
2023/09/12 03:43:55;;;;;;;;;;;;;;;28.36;47.89;101280.38;5054937;28;19942;-68
2023/09/12 03:46:21;;;;;;;;;;;;;;;28.38;47.79;101278.31;5062420;28;19925;-68
2023/09/12 03:48:46;;;;;;;;;;;;;;;28.38;47.75;101275.66;5062221;28;20012;-68
2023/09/12 03:51:12;;;;;;;;;;;;;;;28.33;47.73;101280.84;5057521;28;19948;-68
2023/09/12 03:53:37;;;;;;;;;;;;;;;28.35;47.82;101284.09;5059596;28;19991;-69
2023/09/12 03:56:03;;;;;;;;;;;;;;;28.37;47.71;101290.09;5056719;28;19954;-68
2023/09/12 03:58:28;;;;;;;;;;;;;;;28.35;47.81;101281.44;5061447;28;20039;-68
2023/09/12 04:00:54;;;;;;;;;;;;;;;28.34;47.78;101287.03;5053246;28;20447;-68
2023/09/12 04:03:20;;;;;;;;;;;;;;;28.34;47.76;101289.69;5056675;28;19938;-68
2023/09/12 04:05:47;;;;;;;;;;;;;;;28.35;47.75;101289.47;5054437;28;19950;-69
2023/09/12 04:08:12;;;;;;;;;;;;;;;28.34;47.65;101285.16;5073328;28;19982;-68
2023/09/12 04:10:37;;;;;;;;;;;;;;;28.33;47.69;101282.72;5060567;28;19924;-68
2023/09/12 04:13:03;;;;;;;;;;;;;;;28.33;47.75;101280.84;5060611;28;20741;-68
2023/09/12 04:15:29;;;;;;;;;;;;;;;28.34;47.63;101266.41;5059471;28;20017;-68
2023/09/12 04:17:54;;;;;;;;;;;;;;;28.34;47.66;101273.63;5057279;28;19943;-68
2023/09/12 04:20:19;;;;;;;;;;;;;;;28.31;47.65;101264.19;5057150;28;20008;-68
2023/09/12 04:22:45;;;;;;;;;;;;;;;28.33;47.63;101259.41;5061276;28;19994;-69
2023/09/12 04:25:11;;;;;;;;;;;;;;;28.33;47.55;101254.06;5059355;28;19968;-68
2023/09/12 04:27:36;;;;;;;;;;;;;;;28.32;47.48;101255.09;5054426;28;20447;-68
2023/09/12 04:30:02;;;;;;;;;;;;;;;28.32;47.62;101248.94;5057768;28;20011;-68
2023/09/12 04:32:28;;;;;;;;;;;;;;;28.31;47.74;101255.34;5062047;28;20314;-68
2023/09/12 04:34:53;;;;;;;;;;;;;;;28.28;47.64;101252.06;5060452;28;20602;-68
2023/09/12 04:37:19;;;;;;;;;;;;;;;28.27;47.54;101255.78;5055779;28;20045;-68
2023/09/12 04:39:45;;;;;;;;;;;;;;;28.27;47.53;101263.81;5052017;28;19971;-68
2023/09/12 04:42:10;;;;;;;;;;;;;;;28.26;47.68;101258.69;5061344;28;19976;-69
2023/09/12 04:44:36;;;;;;;;;;;;;;;28.27;47.53;101255.78;5071120;28;19949;-68
2023/09/12 04:47:02;;;;;;;;;;;;;;;28.28;47.46;101257.44;5060840;28;19940;-68
2023/09/12 04:49:28;;;;;;;;;;;;;;;28.26;47.55;101248.81;5088615;28;20022;-68
2023/09/12 04:51:53;;;;;;;;;;;;;;;28.27;47.47;101261.16;5054328;28;19946;-68
2023/09/12 04:54:19;;;;;;;;;;;;;;;28.27;47.46;101260.34;5056427;28;20491;-68
2023/09/12 04:56:44;;;;;;;;;;;;;;;28.26;47.49;101264.88;5058956;28;19928;-68
2023/09/12 04:59:10;;;;;;;;;;;;;;;28.25;47.55;101263.25;5055888;28;20055;-68
2023/09/12 05:01:36;;;;;;;;;;;;;;;28.24;47.57;101261.56;5055252;28;19966;-68
2023/09/12 05:04:02;;;;;;;;;;;;;;;28.26;47.48;101256.84;5052137;28;20002;-68
2023/09/12 05:06:29;;;;;;;;;;;;;;;28.26;47.61;101272.09;5053636;28;20160;-68
2023/09/12 05:08:54;;;;;;;;;;;;;;;28.23;47.68;101276.00;5056950;28;19945;-68
2023/09/12 05:11:23;;;;;;;;;;;;;;;28.24;47.44;101282.19;5090026;28;20364;-68
2023/09/12 05:13:48;;;;;;;;;;;;;;;28.22;47.46;101276.25;5061529;28;19937;-69
2023/09/12 05:16:14;;;;;;;;;;;;;;;28.23;47.46;101270.66;5062536;28;19937;-68
2023/09/12 05:18:39;;;;;;;;;;;;;;;28.21;47.60;101272.75;5063163;28;19939;-68
2023/09/12 05:21:05;;;;;;;;;;;;;;;28.22;47.50;101270.88;5061591;28;20411;-68
2023/09/12 05:23:30;;;;;;;;;;;;;;;28.21;47.41;101278.09;5068663;28;19977;-68
2023/09/12 05:25:56;;;;;;;;;;;;;;;28.20;47.58;101271.09;5057185;28;19948;-68
2023/09/12 05:28:21;;;;;;;;;;;;;;;28.19;47.43;101268.66;5055231;28;19947;-68
2023/09/12 05:30:49;;;;;;;;;;;;;;;28.17;47.46;101268.84;5059800;28;20469;-68
2023/09/12 05:33:14;;;;;;;;;;;;;;;28.20;47.44;101281.00;5058475;28;19944;-68
2023/09/12 05:35:40;;;;;;;;;;;;;;;28.17;47.51;101282.25;5060348;28;19945;-68
2023/09/12 05:38:05;;;;;;;;;;;;;;;28.19;47.47;101298.13;5071168;28;19984;-68
2023/09/12 05:40:31;;;;;;;;;;;;;;;28.15;47.49;101308.44;5063350;28;19950;-68
2023/09/12 05:42:56;;;;;;;;;;;;;;;28.14;47.44;101309.47;5058670;28;20005;-68
2023/09/12 05:45:21;;;;;;;;;;;;;;;28.15;47.41;101315.63;5062620;28;20537;-68
2023/09/12 05:47:48;;;;;;;;;;;;;;;28.15;47.35;101311.09;5056093;28;19978;-69
2023/09/12 05:50:14;;;;;;;;;;;;;;;28.16;47.47;101307.38;5062571;28;19935;-68
2023/09/12 05:52:41;;;;;;;;;;;;;;;28.17;47.54;101309.03;5054568;28;19937;-69
2023/09/12 05:55:07;;;;;;;;;;;;;;;28.18;47.37;101312.50;5076799;28;19968;-68
2023/09/12 05:57:33;;;;;;;;;;;;;;;28.16;47.30;101310.06;5090855;27;20956;-67
2023/09/12 05:59:59;;;;;;;;;;;;;;;28.18;47.29;101323.22;5058580;28;19939;-69
2023/09/12 06:02:27;;;;;;;;;;;;;;;28.14;47.50;101328.22;5086079;27;19981;-68
2023/09/12 06:04:52;;;;;;;;;;;;;;;28.14;47.41;101324.72;5058206;28;19980;-68
2023/09/12 06:07:18;;;;;;;;;;;;;;;28.14;47.46;101322.03;5063679;28;20061;-68
2023/09/12 06:09:43;;;;;;;;;;;;;;;28.13;47.49;101323.09;5058426;28;19964;-67
2023/09/12 06:12:08;;;;;;;;;;;;;;;28.15;47.38;101329.84;5062599;28;20449;-68
2023/09/12 06:14:34;;;;;;;;;;;;;;;28.13;47.51;101326.56;5070987;28;19958;-68
2023/09/12 06:16:59;;;;;;;;;;;;;;;27.94;47.54;101295.50;5057258;28;20023;-68
2023/09/12 06:19:25;;;;;;;;;;;;;;;28.13;47.48;101325.75;5061161;28;19957;-68
2023/09/12 06:21:50;;;;;;;;;;;;;;;28.11;47.55;101320.63;5061011;28;20037;-69
2023/09/12 06:24:20;;;;;;;;;;;;;;;28.13;47.48;101323.09;5064614;28;19946;-68
2023/09/12 06:26:46;;;;;;;;;;;;;;;28.12;47.54;101329.47;5063264;28;20053;-68
2023/09/12 06:29:13;;;;;;;;;;;;;;;28.10;47.59;101321.69;5056004;28;20639;-68
2023/09/12 06:31:39;;;;;;;;;;;;;;;28.11;47.62;101312.59;5049138;28;20041;-68
2023/09/12 06:34:04;;;;;;;;;;;;;;;28.10;47.38;101299.44;5059403;28;19941;-68
2023/09/12 06:36:30;;;;;;;;;;;;;;;28.11;47.60;101298.41;5057242;28;19987;-68
2023/09/12 06:38:55;;;;;;;;;;;;;;;28.11;47.38;101303.75;5062049;28;20403;-68
2023/09/12 06:41:21;;;;;;;;;;;;;;;28.09;47.61;101300.47;5061694;28;20439;-68
2023/09/12 06:43:46;;;;;;;;;;;;;;;28.08;47.57;101299.66;5060406;28;19954;-69
2023/09/12 06:46:12;;;;;;;;;;;;;;;28.10;47.55;101302.94;5054263;28;20041;-68
2023/09/12 06:48:37;;;;;;;;;;;;;;;28.08;47.63;101299.66;5051103;28;20017;-68
2023/09/12 06:51:08;;;;;;;;;;;;;;;28.10;47.53;101315.50;5055078;28;19957;-68
2023/09/12 06:53:33;;;;;;;;;;;;;;;28.11;47.62;101307.25;5057191;28;20516;-68
2023/09/12 06:55:59;;;;;;;;;;;;;;;28.10;47.60;101304.78;5054778;28;19944;-68
2023/09/12 06:58:25;;;;;;;;;;;;;;;28.11;47.64;101314.47;5060906;28;19984;-68
2023/09/12 07:00:50;;;;;;;;;;;;;;;28.10;47.34;101305.59;5056125;28;20716;-68
2023/09/12 07:03:16;;;;;;;;;;;;;;;28.09;47.67;101308.50;5054725;28;19961;-68
2023/09/12 07:05:42;;;;;;;;;;;;;;;28.10;47.45;101304.78;5061659;28;19951;-68
2023/09/12 07:08:08;;;;;;;;;;;;;;;28.09;47.81;101306.66;5054697;28;19944;-68
2023/09/12 07:10:34;;;;;;;;;;;;;;;28.01;47.69;101309.66;5055532;28;19954;-68
2023/09/12 07:12:59;;;;;;;;;;;;;;;27.85;47.89;101313.72;5059342;28;20441;-68
2023/09/12 07:15:24;;;;;;;;;;;;;;;27.93;47.52;101312.59;5056587;28;20384;-68
2023/09/12 07:17:50;;;;;;;;;;;;;;;28.00;47.54;101310.66;5060490;28;19948;-67
2023/09/12 07:20:17;;;;;;;;;;;;;;;28.02;47.48;101321.16;5064793;28;19943;-67
2023/09/12 07:22:43;;;;;;;;;;;;;;;28.03;47.53;101315.59;5057530;28;20018;-68
2023/09/12 07:25:11;;;;;;;;;;;;;;;28.04;47.43;101313.72;5062223;28;19946;-68
2023/09/12 07:27:37;;;;;;;;;;;;;;;28.02;47.33;101324.66;5059734;28;21846;-67
2023/09/12 07:30:03;;;;;;;;;;;;;;;28.02;47.23;101319.31;5056091;28;19957;-67
2023/09/12 07:32:28;;;;;;;;;;;;;;;28.01;47.49;101328.38;5055994;28;20508;-67
2023/09/12 07:34:54;;;;;;;;;;;;;;;28.02;47.30;101330.03;5057492;28;19946;-67
2023/09/12 07:37:19;;;;;;;;;;;;;;;27.91;47.26;101336.91;5056365;28;20413;-72
2023/09/12 07:39:45;;;;;;;;;;;;;;;27.92;47.37;101335.06;5055798;28;19997;-71
2023/09/12 07:42:10;;;;;;;;;;;;;;;27.97;47.33;101332.50;5064053;28;19982;-72
2023/09/12 07:44:35;;;;;;;;;;;;;;;27.99;47.32;101336.59;5058765;28;19947;-71
2023/09/12 07:47:01;;;;;;;;;;;;;;;27.97;47.44;101333.34;5060058;28;19959;-71
2023/09/12 07:49:26;;;;;;;;;;;;;;;28.03;47.22;101338.88;5062711;28;19962;-71
2023/09/12 07:51:52;;;;;;;;;;;;;;;28.05;47.13;101347.50;5059151;28;20619;-72
2023/09/12 07:54:17;;;;;;;;;;;;;;;28.03;47.23;101350.38;5057953;28;19946;-72
2023/09/12 07:56:43;;;;;;;;;;;;;;;28.05;47.25;101350.16;5063498;28;20035;-72
2023/09/12 07:59:09;;;;;;;;;;;;;;;28.06;47.19;101349.94;5059605;28;19996;-75
2023/09/12 08:01:35;;;;;;;;;;;;;;;27.57;48.54;101345.44;5057708;28;19948;-73
2023/09/12 08:04:00;;;;;;;;;;;;;;;27.55;48.53;101351.00;5055100;28;19946;-75
2023/09/12 08:06:26;;;;;;;;;;;;;;;27.29;49.07;101345.84;5053308;28;21047;-69
2023/09/12 08:08:52;;;;;;;;;;;;;;;27.03;49.31;101350.34;5054745;28;19988;-70
2023/09/12 08:11:17;;;;;;;;;;;;;;;27.06;49.64;101357.13;5052942;28;19994;-70
2023/09/12 08:13:42;;;;;;;;;;;;;;;27.08;49.68;101361.22;5061532;28;19947;-71
2023/09/12 08:16:08;;;;;;;;;;;;;;;27.37;48.77;101365.13;5060861;28;19953;-70
2023/09/12 08:18:33;;;;;;;;;;;;;;;27.46;48.89;101373.69;5064787;28;21876;-68
2023/09/12 08:20:59;;;;;;;;;;;;;;;27.46;49.00;101373.69;5062006;28;19936;-69
2023/09/12 08:23:24;;;;;;;;;;;;;;;27.43;49.13;101376.00;5060977;28;19949;-69
2023/09/12 08:25:49;;;;;;;;;;;;;;;27.48;48.65;101379.69;5062567;28;20416;-69
2023/09/12 08:28:15;;;;;;;;;;;;;;;27.56;48.74;101376.72;5056235;28;19957;-68
2023/09/12 08:30:40;;;;;;;;;;;;;;;27.64;48.37;101386.34;5064426;28;20055;-69
2023/09/12 08:33:06;;;;;;;;;;;;;;;27.65;48.30;101385.34;5064751;28;20424;-69
2023/09/12 08:35:32;;;;;;;;;;;;;;;27.72;48.19;101385.28;5060164;28;19965;-69
2023/09/12 08:37:57;;;;;;;;;;;;;;;27.71;48.06;101386.31;5059344;28;20452;-66
2023/09/12 08:40:23;;;;;;;;;;;;;;;27.74;48.02;101391.22;5053290;28;19946;-67
2023/09/12 08:42:51;;;;;;;;;;;;;;;27.68;48.05;101391.06;5063207;28;19945;-70
2023/09/12 08:45:18;;;;;;;;;;;;;;;27.79;47.96;101394.03;5062652;28;19944;-70
2023/09/12 08:47:45;;;;;;;;;;;;;;;27.85;47.99;101395.88;5058597;28;19946;-70
2023/09/12 08:50:15;;;;;;;;;;;;;;;27.88;47.93;101395.41;5063689;28;20040;-69
2023/09/12 08:52:44;;;;;;;;;;;;;;;27.91;48.11;101397.66;5063058;28;20365;-70
2023/09/12 08:55:10;;;;;;;;;;;;;;;27.92;47.87;101392.06;5066510;28;20026;-70
2023/09/12 08:57:38;;;;;;;;;;;;;;;27.93;47.70;101396.38;5064108;28;20364;-69
2023/09/12 09:00:12;;;;;;;;;;;;;;;27.95;47.96;101396.97;5066611;28;20081;-70
2023/09/12 09:02:38;;;;;;;;;;;;;;;27.97;47.78;101399.44;5071529;28;20689;-66
2023/09/12 09:05:05;;;;;;;;;;;;;;;27.47;49.65;101401.25;5061373;28;19971;-65
2023/09/12 09:07:35;;;;;;;;;;;;;;;27.31;50.27;101397.28;5062618;28;19946;-67
2023/09/12 09:10:07;;;;;;;;;;;;;;;27.59;49.29;101399.53;5057154;28;19972;-66
2023/09/12 09:12:33;;;;;;;;;;;;;;;27.80;48.87;101393.00;5062395;28;19968;-67
2023/09/12 09:15:19;;;;;;;;;;;;;;;27.87;48.30;101393.78;5063465;28;22036;-67
2023/09/12 09:17:44;;;;;;;;;;;;;;;27.92;48.25;101393.94;5068600;28;20389;-67
2023/09/12 09:20:10;;;;;;;;;;;;;;;27.95;48.30;101385.47;5074218;28;20031;-67
2023/09/12 09:22:35;;;;;;;;;;;;;;;27.97;48.32;101392.22;5070484;28;19952;-67
2023/09/12 09:25:09;;;;;;;;;;;;;;;28.00;48.20;101386.44;5060291;28;20386;-67
2023/09/12 09:27:35;;;;;;;;;;;;;;;28.04;48.19;101386.81;5059601;28;20738;-67
2023/09/12 09:30:00;;;;;;;;;;;;;;;28.04;48.19;101384.16;5064023;28;19996;-67
2023/09/12 09:32:25;;;;;;;;;;;;;;;28.08;48.23;101384.53;5062085;28;19993;-67
2023/09/12 09:34:52;;;;;;;;;;;;;;;28.10;48.00;101385.13;5056054;28;19950;-67
2023/09/12 09:37:19;;;;;;;;;;;;;;;28.09;48.26;101384.28;5057237;28;19945;-67
2023/09/12 09:39:46;;;;;;;;;;;;;;;28.12;48.21;101378.50;5061298;28;20680;-67
2023/09/12 09:42:14;;;;;;;;;;;;;;;27.96;48.02;101358.47;5067800;28;19948;-67
2023/09/12 09:44:39;;;;;;;;;;;;;;;28.15;47.98;101382.59;5065757;28;19946;-67
2023/09/12 09:47:04;;;;;;;;;;;;;;;28.17;47.92;101388.53;5064278;28;19986;-67
2023/09/12 09:49:36;;;;;;;;;;;;;;;28.17;48.10;101381.31;5060232;28;19959;-67
2023/09/12 09:52:05;;;;;;;;;;;;;;;28.21;47.91;101374.50;5064507;28;19943;-67
2023/09/12 09:54:30;;;;;;;;;;;;;;;28.20;48.19;101377.41;5067122;28;19948;-67
2023/09/12 09:56:56;;;;;;;;;;;;;;;28.22;47.96;101375.31;5060717;28;19983;-67
2023/09/12 09:59:22;;;;;;;;;;;;;;;28.21;48.01;101369.16;5058703;28;19935;-67
2023/09/12 10:01:53;;;;;;;;;;;;;;;28.25;47.83;101372.19;5062623;28;20370;-67
2023/09/12 10:04:19;;;;;;;;;;;;;;;28.27;47.87;101365.59;5054776;28;20705;-67
2023/09/12 10:06:45;;;;;;;;;;;;;;;28.25;47.92;101367.69;5063499;28;19945;-67
2023/09/12 10:09:12;;;;;;;;;;;;;;;28.27;48.00;101373.63;5059765;28;20064;-67
2023/09/12 10:11:39;;;;;;;;;;;;;;;28.29;48.01;101379.56;5062987;28;19963;-67
2023/09/12 10:14:05;;;;;;;;;;;;;;;28.30;47.78;101380.41;5059610;28;19949;-67
2023/09/12 10:16:31;;;;;;;;;;;;;;;28.31;47.79;101376.69;5059120;28;20053;-67
2023/09/12 10:19:17;;;;;;;;;;;;;;;28.32;47.87;101374.81;5057698;28;20700;-66
2023/09/12 10:21:53;;;;;;;;;;;;;;;28.31;47.70;101378.53;5059215;28;20306;-67
2023/09/12 10:24:21;;;;;;;;;;;;;;;28.34;47.90;101381.56;5058377;28;20396;-67
2023/09/12 10:26:47;;;;;;;;;;;;;;;28.37;47.88;101388.34;5058470;28;19944;-67
2023/09/12 10:29:14;;;;;;;;;;;;;;;28.37;47.76;101385.66;5057571;28;19978;-67
2023/09/12 10:31:40;;;;;;;;;;;;;;;28.19;48.06;101354.34;5056125;28;19963;-66
2023/09/12 10:34:09;;;;;;;;;;;;;;;28.34;47.73;101381.56;5062812;28;19948;-67
2023/09/12 10:36:38;;;;;;;;;;;;;;;28.37;47.71;101386.50;5051480;28;20325;-66
2023/09/12 10:39:04;;;;;;;;;;;;;;;28.38;47.68;101382.78;5059031;28;19950;-67
2023/09/12 10:41:30;;;;;;;;;;;;;;;28.42;47.80;101385.84;5057061;28;19956;-67
2023/09/12 10:43:57;;;;;;;;;;;;;;;28.41;47.75;101381.53;5056637;28;19951;-67
2023/09/12 10:46:23;;;;;;;;;;;;;;;28.40;47.71;101380.72;5057042;28;20001;-67
2023/09/12 10:48:49;;;;;;;;;;;;;;;28.42;47.73;101380.47;5059077;28;20358;-67
2023/09/12 10:51:16;;;;;;;;;;;;;;;28.41;47.77;101376.16;5057295;28;20044;-67
2023/09/12 10:53:48;;;;;;;;;;;;;;;28.42;47.68;101375.94;5063939;28;19936;-67
2023/09/12 10:56:15;;;;;;;;;;;;;;;28.42;47.75;101367.09;5055852;28;20002;-67
2023/09/12 10:58:59;;;;;;;;;;;;;;;28.42;47.72;101370.59;5058539;28;19941;-67
2023/09/12 11:01:25;;;;;;;;;;;;;;;28.44;47.69;101370.34;5054569;28;20410;-67
2023/09/12 11:03:50;;;;;;;;;;;;;;;28.45;47.66;101369.31;5062517;28;19945;-66
2023/09/12 11:06:21;;;;;;;;;;;;;;;28.46;47.72;101363.72;5067799;28;19924;-66
2023/09/12 11:09:06;;;;;;;;;;;;;;;28.48;47.71;101361.63;5055188;28;19971;-66
2023/09/12 11:11:31;;;;;;;;;;;;;;;28.46;47.69;101365.59;5059954;28;19994;-67
2023/09/12 11:14:04;;;;;;;;;;;;;;;28.48;47.61;101369.69;5022796;28;19982;-66
2023/09/12 11:16:29;;;;;;;;;;;;;;;28.47;47.72;101375.25;5013821;28;20040;-67
2023/09/12 11:19:16;;;;;;;;;;;;;;;28.47;47.57;101380.63;5016618;28;19942;-67
2023/09/12 11:21:46;;;;;;;;;;;;;;;28.49;47.73;101381.22;5022429;28;20052;-67
2023/09/12 11:24:12;;;;;;;;;;;;;;;28.53;47.52;101377.03;5015113;28;19943;-67
2023/09/12 11:26:57;;;;;;;;;;;;;;;28.53;47.61;101374.34;5019199;28;20012;-66
2023/09/12 11:29:28;;;;;;;;;;;;;;;28.51;47.48;101376.44;5018850;28;20638;-66
2023/09/12 11:31:59;;;;;;;;;;;;;;;28.54;47.58;101381.34;5014981;28;19949;-67
2023/09/12 11:34:26;;;;;;;;;;;;;;;28.56;47.31;101366.72;5018448;28;19947;-66
2023/09/12 11:36:54;;;;;;;;;;;;;;;28.56;47.43;101365.88;5017480;28;19952;-67
2023/09/12 11:39:24;;;;;;;;;;;;;;;28.57;47.28;101368.34;5022635;28;19951;-67
2023/09/12 11:41:50;;;;;;;;;;;;;;;28.58;47.29;101363.78;5015288;28;20276;-67
2023/09/12 11:44:15;;;;;;;;;;;;;;;28.59;47.27;101360.06;5016350;28;19951;-66
2023/09/12 11:46:41;;;;;;;;;;;;;;;28.59;47.25;101355.53;5017348;28;20530;-66
2023/09/12 11:49:07;;;;;;;;;;;;;;;28.62;46.99;101361.47;5017348;28;19951;-67
2023/09/12 11:51:32;;;;;;;;;;;;;;;28.62;47.28;101361.47;5017802;28;19968;-67
2023/09/12 11:53:59;;;;;;;;;;;;;;;28.60;47.20;101356.34;5021821;28;19954;-66
2023/09/12 11:56:25;;;;;;;;;;;;;;;28.62;47.21;101358.81;5015739;28;20507;-67
2023/09/12 11:58:51;;;;;;;;;;;;;;;28.65;47.24;101366.38;5017755;28;19948;-67
2023/09/12 12:01:17;;;;;;;;;;;;;;;28.64;47.17;101367.44;5014844;28;19946;-67
2023/09/12 12:03:43;;;;;;;;;;;;;;;28.63;47.44;101371.97;5015665;28;20749;-66
2023/09/12 12:06:09;;;;;;;;;;;;;;;28.48;47.29;101329.50;5016872;28;19989;-66
2023/09/12 12:08:35;;;;;;;;;;;;;;;28.66;47.04;101359.97;5019050;28;20030;-66
2023/09/12 12:11:01;;;;;;;;;;;;;;;28.66;47.13;101352.75;5013579;28;19962;-66
2023/09/12 12:13:27;;;;;;;;;;;;;;;28.67;47.18;101348.22;5052571;28;19968;-66
2023/09/12 12:15:53;;;;;;;;;;;;;;;28.65;47.16;101350.31;5061604;28;20421;-66
2023/09/12 12:18:18;;;;;;;;;;;;;;;28.67;47.18;101346.34;5056181;28;19941;-67
2023/09/12 12:20:44;;;;;;;;;;;;;;;28.70;47.09;101356.63;5060727;28;20396;-67
2023/09/12 12:23:09;;;;;;;;;;;;;;;28.70;47.03;101353.13;5065210;28;19946;-67
2023/09/12 12:25:35;;;;;;;;;;;;;;;28.70;46.91;101353.94;5073419;28;20763;-67
2023/09/12 12:28:00;;;;;;;;;;;;;;;28.71;47.06;101350.22;5066535;28;20332;-66
2023/09/12 12:30:30;;;;;;;;;;;;;;;28.73;46.97;101341.97;5065772;28;19967;-67
2023/09/12 12:32:55;;;;;;;;;;;;;;;28.73;47.00;101345.47;5067952;28;20028;-66